createdAt,value
2018-12-15T00:01:49.363Z,100988.25
2018-12-15T00:04:18.218Z,100987.17
2018-12-15T00:06:46.600Z,100981.66
2018-12-15T00:09:14.976Z,100987.86
2018-12-15T00:11:43.357Z,100991.00
2018-12-15T00:14:11.738Z,100993.25
2018-12-15T00:16:40.112Z,100994.16
2018-12-15T00:19:08.455Z,100992.27
2018-12-15T00:21:36.800Z,100994.03
2018-12-15T00:24:05.250Z,101000.80
2018-12-15T00:26:33.579Z,101000.98
2018-12-15T00:29:01.925Z,101002.44
2018-12-15T00:31:30.288Z,101008.64
2018-12-15T00:33:58.667Z,101009.22
2018-12-15T00:36:27.004Z,101007.78
2018-12-15T00:38:55.348Z,101012.60
2018-12-15T00:41:23.685Z,101012.84
2018-12-15T00:43:52.083Z,101017.94
2018-12-15T00:46:20.600Z,101014.28
2018-12-15T00:48:48.943Z,101023.78
2018-12-15T00:51:17.322Z,101024.08
2018-12-15T00:53:45.716Z,101026.59
2018-12-15T00:56:14.180Z,101024.91
2018-12-15T00:58:42.515Z,101026.85
2018-12-15T01:01:11.216Z,101027.36
2018-12-15T01:03:39.558Z,101031.62
2018-12-15T01:06:07.978Z,101032.25
2018-12-15T01:08:37.205Z,101036.46
2018-12-15T01:11:05.594Z,101026.91
2018-12-15T01:13:33.912Z,101028.05
2018-12-15T01:16:02.569Z,101025.92
2018-12-15T01:18:31.683Z,101028.05
2018-12-15T01:21:00.040Z,101029.66
2018-12-15T01:23:28.403Z,101030.78
2018-12-15T01:25:56.739Z,101032.44
2018-12-15T01:28:25.137Z,101033.37
2018-12-15T01:30:53.611Z,101036.34
2018-12-15T01:33:22.147Z,101035.70
2018-12-15T01:35:51.027Z,101037.15
2018-12-15T01:38:19.339Z,101034.27
2018-12-15T01:40:47.751Z,101033.93
2018-12-15T01:43:16.184Z,101033.93
2018-12-15T01:45:44.604Z,101032.23
2018-12-15T01:48:13.168Z,101030.63
2018-12-15T01:50:41.491Z,101038.06
2018-12-15T01:53:09.828Z,101037.26
2018-12-15T01:55:38.197Z,101036.19
2018-12-15T01:58:06.618Z,101038.19
2018-12-15T02:00:34.974Z,101032.16
2018-12-15T02:03:03.323Z,101029.02
2018-12-15T02:05:31.950Z,101034.92
2018-12-15T02:08:02.172Z,101028.59
2018-12-15T02:10:32.451Z,101035.89
2018-12-15T02:13:02.828Z,101030.92
2018-12-15T02:15:31.161Z,101031.36
2018-12-15T02:17:59.496Z,101033.69
2018-12-15T02:20:27.864Z,101032.84
2018-12-15T02:22:56.230Z,101037.56
2018-12-15T02:25:24.577Z,101030.21
2018-12-15T02:27:52.906Z,101034.75
2018-12-15T02:30:21.237Z,101028.46
2018-12-15T02:32:49.935Z,101027.09
2018-12-15T02:35:18.299Z,101025.95
2018-12-15T02:37:46.776Z,101023.40
2018-12-15T02:40:15.174Z,101027.53
2018-12-15T02:42:43.500Z,101023.70
2018-12-15T02:45:11.833Z,101028.09
2018-12-15T02:47:41.731Z,101023.33
2018-12-15T02:50:11.945Z,101011.13
2018-12-15T02:52:40.539Z,101021.75
2018-12-15T02:55:08.876Z,101021.75
2018-12-15T02:57:37.292Z,101016.86
2018-12-15T03:00:05.689Z,101023.15
2018-12-15T03:02:34.017Z,101021.50
2018-12-15T03:05:02.378Z,101019.98
2018-12-15T03:07:30.726Z,101014.91
2018-12-15T03:09:59.039Z,101019.87
2018-12-15T03:12:27.423Z,101014.33
2018-12-15T03:14:55.783Z,101019.80
2018-12-15T03:17:24.853Z,101027.75
2018-12-15T03:19:55.169Z,101026.05
2018-12-15T03:22:23.544Z,101022.31
2018-12-15T03:24:51.869Z,101024.44
2018-12-15T03:27:20.313Z,101031.45
2018-12-15T03:29:48.677Z,101031.27
2018-12-15T03:32:16.997Z,101034.29
2018-12-15T03:34:45.339Z,101036.38
2018-12-15T03:37:13.676Z,101030.72
2018-12-15T03:39:42.000Z,101035.15
2018-12-15T03:42:10.365Z,101031.83
2018-12-15T03:44:38.692Z,101037.23
2018-12-15T03:47:07.122Z,101040.50
2018-12-15T03:49:35.515Z,101036.80
2018-12-15T03:52:03.901Z,101041.26
2018-12-15T03:54:32.284Z,101040.50
2018-12-15T03:57:00.618Z,101043.86
2018-12-15T03:59:29.190Z,101048.11
2018-12-15T04:01:57.583Z,101042.37
2018-12-15T04:04:26.124Z,101034.47
2018-12-15T04:06:54.683Z,101040.24
2018-12-15T04:09:23.085Z,101038.38
2018-12-15T04:11:51.559Z,101041.01
2018-12-15T04:14:20.621Z,101037.44
2018-12-15T04:16:49.011Z,101039.99
2018-12-15T04:19:17.331Z,101043.52
2018-12-15T04:21:45.782Z,101040.55
2018-12-15T04:24:14.166Z,101047.13
2018-12-15T04:26:42.545Z,101055.88
2018-12-15T04:29:11.697Z,101046.20
2018-12-15T04:31:40.081Z,101042.91
2018-12-15T04:34:08.499Z,101042.62
2018-12-15T04:36:37.292Z,101037.69
2018-12-15T04:39:05.833Z,101044.58
2018-12-15T04:41:34.292Z,101037.23
2018-12-15T04:44:02.643Z,101045.12
2018-12-15T04:46:30.971Z,101044.63
2018-12-15T04:48:59.325Z,101049.34
2018-12-15T04:51:27.676Z,101050.05
2018-12-15T04:53:56.008Z,101046.66
2018-12-15T04:56:24.382Z,101053.87
2018-12-15T04:58:52.858Z,101046.44
2018-12-15T05:01:21.193Z,101055.15
2018-12-15T05:03:49.519Z,101054.94
2018-12-15T05:06:18.072Z,101055.70
2018-12-15T05:08:46.521Z,101055.02
2018-12-15T05:11:14.875Z,101056.26
2018-12-15T05:13:43.280Z,101057.02
2018-12-15T05:16:11.653Z,101053.70
2018-12-15T05:18:39.983Z,101056.34
2018-12-15T05:21:08.411Z,101056.69
2018-12-15T05:23:36.748Z,101058.00
2018-12-15T05:26:05.099Z,101060.97
2018-12-15T05:28:33.584Z,101065.61
2018-12-15T05:31:01.908Z,101062.59
2018-12-15T05:33:30.335Z,101059.83
2018-12-15T05:35:58.687Z,101063.66
2018-12-15T05:38:27.053Z,101059.19
2018-12-15T05:40:55.412Z,101061.31
2018-12-15T05:43:23.844Z,101062.81
2018-12-15T05:45:52.712Z,101065.09
2018-12-15T05:48:25.207Z,101064.34
2018-12-15T05:50:51.462Z,101065.65
2018-12-15T05:53:19.877Z,101071.27
2018-12-15T05:55:48.209Z,101067.19
2018-12-15T05:58:16.574Z,101067.99
2018-12-15T06:00:44.930Z,101071.39
2018-12-15T06:03:13.344Z,101066.24
2018-12-15T06:05:43.673Z,101068.75
2018-12-15T06:08:12.180Z,101074.52
2018-12-15T06:10:40.630Z,101075.97
2018-12-15T06:13:09.026Z,101072.95
2018-12-15T06:15:37.343Z,101074.06
2018-12-15T06:18:05.865Z,101077.80
2018-12-15T06:20:34.243Z,101078.01
2018-12-15T06:23:03.447Z,101081.52
2018-12-15T06:25:31.891Z,101081.19
2018-12-15T06:28:00.220Z,101080.84
2018-12-15T06:30:32.131Z,101086.38
2018-12-15T06:33:00.554Z,101086.84
2018-12-15T06:35:28.886Z,101088.28
2018-12-15T06:37:57.304Z,101084.22
2018-12-15T06:40:26.559Z,101086.00
2018-12-15T06:42:55.429Z,101089.27
2018-12-15T06:45:23.979Z,101094.34
2018-12-15T06:47:52.493Z,101094.91
2018-12-15T06:50:20.831Z,101098.86
2018-12-15T06:52:49.248Z,101098.86
2018-12-15T06:55:17.734Z,101095.09
2018-12-15T06:57:46.113Z,101098.48
2018-12-15T07:00:14.593Z,101098.23
2018-12-15T07:02:42.994Z,101097.25
2018-12-15T07:05:11.355Z,101103.66
2018-12-15T07:07:39.815Z,101099.03
2018-12-15T07:10:08.175Z,101100.66
2018-12-15T07:12:36.552Z,101108.80
2018-12-15T07:15:05.760Z,101105.63
2018-12-15T07:17:34.505Z,101110.34
2018-12-15T07:20:04.396Z,101105.75
2018-12-15T07:22:32.789Z,101112.34
2018-12-15T07:25:01.107Z,101107.70
2018-12-15T07:27:29.639Z,101108.02
2018-12-15T07:29:58.361Z,101112.17
2018-12-15T07:32:27.340Z,101101.13
2018-12-15T07:35:00.964Z,101102.23
2018-12-15T07:37:26.099Z,101100.48
2018-12-15T07:39:54.472Z,101105.71
2018-12-15T07:42:22.846Z,101109.80
2018-12-15T07:44:51.226Z,101106.52
2018-12-15T07:47:19.572Z,101105.84
2018-12-15T07:49:47.989Z,101106.10
2018-12-15T07:52:16.483Z,101106.28
2018-12-15T07:54:44.814Z,101109.17
2018-12-15T07:57:13.214Z,101104.54
2018-12-15T07:59:41.824Z,101104.54
2018-12-15T08:02:10.151Z,101112.14
2018-12-15T08:04:38.612Z,101111.77
2018-12-15T08:07:06.948Z,101115.72
2018-12-15T08:09:35.451Z,101113.98
2018-12-15T08:12:09.537Z,101116.52
2018-12-15T08:14:38.087Z,101114.23
2018-12-15T08:17:06.467Z,101106.95
2018-12-15T08:19:35.411Z,101108.07
2018-12-15T08:22:03.848Z,101105.77
2018-12-15T08:24:32.299Z,101107.94
2018-12-15T08:27:01.093Z,101112.45
2018-12-15T08:29:29.749Z,101116.39
2018-12-15T08:31:58.083Z,101112.78
2018-12-15T08:34:26.418Z,101111.20
2018-12-15T08:36:54.739Z,101118.55
2018-12-15T08:39:23.126Z,101113.72
2018-12-15T08:41:51.483Z,101114.14
2018-12-15T08:44:19.822Z,101118.05
2018-12-15T08:46:48.171Z,101124.43
2018-12-15T08:49:16.610Z,101132.80
2018-12-15T08:51:44.987Z,101128.59
2018-12-15T08:54:13.640Z,101126.73
2018-12-15T08:56:42.010Z,101130.59
2018-12-15T08:59:10.387Z,101128.05
2018-12-15T09:01:45.242Z,101128.30
2018-12-15T09:04:13.555Z,101128.89
2018-12-15T09:06:41.967Z,101127.37
2018-12-15T09:09:10.352Z,101130.59
2018-12-15T09:11:38.701Z,101129.10
2018-12-15T09:14:07.356Z,101122.30
2018-12-15T09:16:35.704Z,101126.27
2018-12-15T09:19:04.245Z,101132.98
2018-12-15T09:21:32.640Z,101129.73
2018-12-15T09:24:00.968Z,101129.05
2018-12-15T09:26:31.256Z,101118.56
2018-12-15T09:28:59.639Z,101121.50
2018-12-15T09:31:28.432Z,101116.86
2018-12-15T09:33:56.769Z,101114.30
2018-12-15T09:36:25.113Z,101108.70
2018-12-15T09:38:53.463Z,101113.11
2018-12-15T09:41:21.796Z,101105.33
2018-12-15T09:43:50.138Z,101101.12
2018-12-15T09:46:18.517Z,101099.22
2018-12-15T09:48:46.836Z,101093.00
2018-12-15T09:51:15.210Z,101095.77
2018-12-15T09:53:43.638Z,101089.51
2018-12-15T09:56:12.317Z,101089.98
2018-12-15T09:58:40.736Z,101085.61
2018-12-15T10:01:09.704Z,101084.66
2018-12-15T10:03:38.285Z,101085.22
2018-12-15T10:06:06.813Z,101074.19
2018-12-15T10:08:35.128Z,101079.39
2018-12-15T10:11:03.576Z,101088.49
2018-12-15T10:13:31.918Z,101084.03
2018-12-15T10:16:00.276Z,101084.09
2018-12-15T10:18:28.775Z,101087.94
2018-12-15T10:20:57.171Z,101083.91
2018-12-15T10:23:25.483Z,101085.88
2018-12-15T10:25:53.907Z,101085.61
2018-12-15T10:28:22.288Z,101076.84
2018-12-15T10:30:56.999Z,101076.00
2018-12-15T10:33:25.505Z,101077.45
2018-12-15T10:35:53.883Z,101072.23
2018-12-15T10:38:22.490Z,101070.70
2018-12-15T10:40:50.951Z,101071.60
2018-12-15T10:43:19.300Z,101066.38
2018-12-15T10:45:47.714Z,101068.21
2018-12-15T10:48:16.036Z,101068.27
2018-12-15T10:50:44.474Z,101062.12
2018-12-15T10:53:13.687Z,101064.97
2018-12-15T10:55:42.056Z,101054.92
2018-12-15T10:58:10.395Z,101056.98
2018-12-15T11:00:44.512Z,101056.09
2018-12-15T11:03:12.918Z,101047.58
2018-12-15T11:05:41.265Z,101050.03
2018-12-15T11:08:09.637Z,101049.58
2018-12-15T11:10:37.971Z,101050.21
2018-12-15T11:13:06.344Z,101047.77
2018-12-15T11:15:34.715Z,101043.91
2018-12-15T11:18:03.303Z,101045.48
2018-12-15T11:20:31.680Z,101041.53
2018-12-15T11:23:00.256Z,101044.36
2018-12-15T11:25:28.594Z,101034.52
2018-12-15T11:27:57.040Z,101029.98
2018-12-15T11:30:25.467Z,101035.27
2018-12-15T11:32:53.768Z,101035.32
2018-12-15T11:35:23.188Z,101032.80
2018-12-15T11:37:51.590Z,101031.19
2018-12-15T11:40:19.952Z,101037.06
2018-12-15T11:42:48.366Z,101028.86
2018-12-15T11:45:16.924Z,101034.31
2018-12-15T11:47:45.510Z,101027.47
2018-12-15T11:50:13.943Z,101032.48
2018-12-15T11:52:42.287Z,101025.89
2018-12-15T11:55:10.653Z,101025.25
2018-12-15T11:57:39.036Z,101018.84
2018-12-15T12:00:07.860Z,101011.89
2018-12-15T12:02:36.279Z,101012.37
2018-12-15T12:05:06.215Z,101014.53
2018-12-15T12:07:34.579Z,101005.36
2018-12-15T12:10:03.014Z,101011.50
2018-12-15T12:12:32.255Z,101003.41
2018-12-15T12:15:00.597Z,101004.34
2018-12-15T12:17:28.914Z,100996.13
2018-12-15T12:19:57.285Z,100998.58
2018-12-15T12:22:25.869Z,100996.70
2018-12-15T12:24:54.211Z,100998.53
2018-12-15T12:27:22.636Z,100997.98
2018-12-15T12:29:50.960Z,101002.75
2018-12-15T12:32:20.393Z,101001.73
2018-12-15T12:34:48.807Z,100997.14
2018-12-15T12:37:17.155Z,100993.19
2018-12-15T12:39:45.552Z,100999.66
2018-12-15T12:42:14.555Z,100994.33
2018-12-15T12:44:43.022Z,100994.45
2018-12-15T12:47:11.368Z,100991.69
2018-12-15T12:49:39.712Z,100988.30
2018-12-15T12:52:08.159Z,100994.06
2018-12-15T12:54:36.486Z,100993.70
2018-12-15T12:57:06.894Z,100984.65
2018-12-15T12:59:35.266Z,100980.58
2018-12-15T13:02:03.891Z,100981.45
2018-12-15T13:04:32.431Z,100979.37
2018-12-15T13:07:00.806Z,100983.21
2018-12-15T13:09:29.146Z,100984.47
2018-12-15T13:11:57.509Z,100978.18
2018-12-15T13:14:25.866Z,100982.82
2018-12-15T13:16:54.192Z,100982.70
2018-12-15T13:19:22.606Z,100987.86
2018-12-15T13:21:50.963Z,100985.64
2018-12-15T13:24:19.509Z,100986.84
2018-12-15T13:26:47.853Z,100983.06
2018-12-15T13:29:16.380Z,100988.66
2018-12-15T13:31:44.781Z,100985.87
2018-12-15T13:34:13.098Z,100986.59
2018-12-15T13:36:41.484Z,100986.14
2018-12-15T13:39:09.847Z,100988.03
2018-12-15T13:41:38.218Z,100984.82
2018-12-15T13:44:07.015Z,100990.09
2018-12-15T13:46:35.383Z,100991.54
2018-12-15T13:49:03.725Z,100990.91
2018-12-15T13:51:32.071Z,100996.06
2018-12-15T13:54:00.434Z,100999.27
2018-12-15T13:56:29.269Z,100998.77
2018-12-15T13:58:57.714Z,100994.41
2018-12-15T14:01:26.229Z,101001.28
2018-12-15T14:03:54.717Z,101000.83
2018-12-15T14:06:23.080Z,100997.51
2018-12-15T14:08:51.601Z,101001.97
2018-12-15T14:11:19.949Z,100999.72
2018-12-15T14:13:48.893Z,100997.90
2018-12-15T14:16:17.268Z,100993.61
2018-12-15T14:18:45.599Z,100995.26
2018-12-15T14:21:14.024Z,101000.59
2018-12-15T14:23:42.416Z,100997.54
2018-12-15T14:26:11.010Z,100995.70
2018-12-15T14:28:39.387Z,100992.89
2018-12-15T14:31:07.779Z,100994.95
2018-12-15T14:33:36.151Z,100993.46
2018-12-15T14:36:04.471Z,100995.38
2018-12-15T14:38:32.853Z,100989.23
2018-12-15T14:41:01.202Z,100992.74
2018-12-15T14:43:29.531Z,100984.65
2018-12-15T14:45:57.869Z,100985.79
2018-12-15T14:48:26.204Z,100991.42
2018-12-15T14:50:54.557Z,100984.77
2018-12-15T14:53:22.965Z,100984.98
2018-12-15T14:55:51.271Z,100988.55
2018-12-15T14:58:19.599Z,100986.15
2018-12-15T15:00:49.646Z,100979.83
2018-12-15T15:03:18.033Z,100982.59
2018-12-15T15:05:46.443Z,100972.61
2018-12-15T15:08:14.755Z,100966.25
2018-12-15T15:10:43.099Z,100962.30
2018-12-15T15:13:11.467Z,100958.97
2018-12-15T15:15:39.858Z,100959.88
2018-12-15T15:18:08.214Z,100959.48
2018-12-15T15:20:36.544Z,100953.58
2018-12-15T15:23:04.979Z,100953.34
2018-12-15T15:25:33.351Z,100951.09
2018-12-15T15:28:01.694Z,100948.28
2018-12-15T15:30:30.113Z,100939.69
2018-12-15T15:32:58.488Z,100942.32
2018-12-15T15:35:26.818Z,100941.36
2018-12-15T15:37:55.202Z,100937.50
2018-12-15T15:40:23.623Z,100934.86
2018-12-15T15:42:52.009Z,100934.53
2018-12-15T15:45:20.337Z,100940.88
2018-12-15T15:47:48.663Z,100946.03
2018-12-15T15:50:17.062Z,100944.47
2018-12-15T15:52:45.398Z,100943.45
2018-12-15T15:55:13.797Z,100938.06
2018-12-15T15:57:42.151Z,100939.77
2018-12-15T16:00:11.135Z,100933.17
2018-12-15T16:02:39.662Z,100933.72
2018-12-15T16:05:08.034Z,100933.59
2018-12-15T16:07:36.402Z,100925.83
2018-12-15T16:10:07.718Z,100928.66
2018-12-15T16:12:36.405Z,100919.05
2018-12-15T16:15:06.412Z,100918.98
2018-12-15T16:17:34.739Z,100920.54
2018-12-15T16:20:06.145Z,100915.27
2018-12-15T16:22:34.490Z,100915.98
2018-12-15T16:25:02.840Z,100920.75
2018-12-15T16:27:31.254Z,100911.59
2018-12-15T16:29:59.595Z,100919.55
2018-12-15T16:32:28.163Z,100914.16
2018-12-15T16:34:56.506Z,100910.78
2018-12-15T16:37:24.874Z,100911.97
2018-12-15T16:39:53.240Z,100915.84
2018-12-15T16:42:21.970Z,100911.41
2018-12-15T16:44:50.988Z,100908.12
2018-12-15T16:47:19.401Z,100912.06
2018-12-15T16:49:47.747Z,100909.07
2018-12-15T16:52:16.328Z,100909.19
2018-12-15T16:54:44.899Z,100906.92
2018-12-15T16:57:13.336Z,100901.64
2018-12-15T16:59:41.725Z,100903.50
2018-12-15T17:02:10.179Z,100898.02
2018-12-15T17:04:38.623Z,100900.30
2018-12-15T17:07:07.050Z,100902.81
2018-12-15T17:09:35.455Z,100898.14
2018-12-15T17:12:03.917Z,100894.76
2018-12-15T17:14:40.504Z,100894.46
2018-12-15T17:17:11.919Z,100897.39
2018-12-15T17:19:40.739Z,100890.17
2018-12-15T17:22:09.091Z,100888.86
2018-12-15T17:24:37.456Z,100891.20
2018-12-15T17:27:05.808Z,100887.13
2018-12-15T17:29:34.142Z,100887.69
2018-12-15T17:32:02.483Z,100882.72
2018-12-15T17:34:30.836Z,100886.50
2018-12-15T17:36:59.289Z,100881.11
2018-12-15T17:39:30.080Z,100880.87
2018-12-15T17:41:58.535Z,100873.95
2018-12-15T17:44:26.996Z,100872.69
2018-12-15T17:46:55.475Z,100870.38
2018-12-15T17:49:23.866Z,100867.13
2018-12-15T17:51:52.260Z,100869.70
2018-12-15T17:54:20.585Z,100869.25
2018-12-15T17:56:48.935Z,100866.91
2018-12-15T17:59:17.381Z,100864.04
2018-12-15T18:01:45.742Z,100859.34
2018-12-15T18:04:14.123Z,100858.47
2018-12-15T18:06:42.482Z,100859.64
2018-12-15T18:09:10.854Z,100858.83
2018-12-15T18:11:39.275Z,100851.13
2018-12-15T18:14:07.640Z,100850.86
2018-12-15T18:16:36.165Z,100848.64
2018-12-15T18:19:04.738Z,100845.59
2018-12-15T18:21:33.180Z,100843.98
2018-12-15T18:24:01.667Z,100839.19
2018-12-15T18:26:30.072Z,100835.00
2018-12-15T18:28:58.420Z,100836.50
2018-12-15T18:31:26.745Z,100836.14
2018-12-15T18:33:55.187Z,100828.23
2018-12-15T18:36:28.096Z,100826.59
2018-12-15T18:38:56.451Z,100822.01
2018-12-15T18:41:24.827Z,100826.98
2018-12-15T18:43:53.219Z,100820.39
2018-12-15T18:46:22.012Z,100819.58
2018-12-15T18:48:50.373Z,100818.27
2018-12-15T18:51:18.872Z,100810.15
2018-12-15T18:53:47.228Z,100804.31
2018-12-15T18:56:15.581Z,100808.08
2018-12-15T18:58:44.008Z,100810.41
2018-12-15T19:01:12.384Z,100801.20
2018-12-15T19:03:40.740Z,100802.30
2018-12-15T19:06:09.189Z,100802.52
2018-12-15T19:08:37.619Z,100801.56
2018-12-15T19:11:05.995Z,100798.23
2018-12-15T19:13:34.400Z,100792.45
2018-12-15T19:16:02.752Z,100798.17
2018-12-15T19:18:31.792Z,100791.77
2018-12-15T19:21:00.234Z,100796.22
2018-12-15T19:23:28.715Z,100788.44
2018-12-15T19:25:57.102Z,100787.00
2018-12-15T19:28:25.457Z,100780.86
2018-12-15T19:30:55.111Z,100780.65
2018-12-15T19:33:23.534Z,100775.38
2018-12-15T19:35:51.923Z,100777.72
2018-12-15T19:38:20.277Z,100771.31
2018-12-15T19:40:48.647Z,100769.30
2018-12-15T19:43:17.084Z,100769.12
2018-12-15T19:45:45.461Z,100766.44
2018-12-15T19:48:14.512Z,100760.36
2018-12-15T19:50:42.823Z,100756.70
2018-12-15T19:53:11.179Z,100767.47
2018-12-15T19:55:39.840Z,100760.59
2018-12-15T19:58:08.348Z,100756.63
2018-12-15T20:00:37.498Z,100756.52
2018-12-15T20:03:05.829Z,100751.55
2018-12-15T20:05:34.298Z,100753.61
2018-12-15T20:08:02.643Z,100751.66
2018-12-15T20:10:30.980Z,100748.33
2018-12-15T20:12:59.319Z,100749.66
2018-12-15T20:15:27.719Z,100751.59
2018-12-15T20:17:56.139Z,100746.95
2018-12-15T20:20:24.483Z,100739.96
2018-12-15T20:22:52.948Z,100740.03
2018-12-15T20:25:21.274Z,100735.72
2018-12-15T20:27:49.600Z,100736.41
2018-12-15T20:30:17.939Z,100730.62
2018-12-15T20:32:46.305Z,100731.95
2018-12-15T20:35:14.655Z,100728.50
2018-12-15T20:37:43.075Z,100727.19
2018-12-15T20:40:11.438Z,100725.64
2018-12-15T20:42:39.835Z,100724.63
2018-12-15T20:45:08.204Z,100721.98
2018-12-15T20:47:36.550Z,100719.47
2018-12-15T20:50:05.299Z,100712.66
2018-12-15T20:52:33.802Z,100702.63
2018-12-15T20:55:02.191Z,100699.66
2018-12-15T20:57:30.615Z,100698.59
2018-12-15T20:59:58.968Z,100704.16
2018-12-15T21:02:27.300Z,100686.73
2018-12-15T21:04:55.651Z,100682.86
2018-12-15T21:07:24.005Z,100688.42
2018-12-15T21:09:52.808Z,100680.02
2018-12-15T21:12:21.200Z,100673.42
2018-12-15T21:14:49.639Z,100662.00
2018-12-15T21:17:18.074Z,100661.89
2018-12-15T21:19:48.053Z,100665.00
2018-12-15T21:22:17.281Z,100661.16
2018-12-15T21:24:45.847Z,100658.13
2018-12-15T21:27:14.293Z,100656.81
2018-12-15T21:29:47.140Z,100658.82
2018-12-15T21:32:15.467Z,100647.48
2018-12-15T21:34:43.807Z,100644.03
2018-12-15T21:37:12.181Z,100632.98
2018-12-15T21:39:40.543Z,100630.24
2018-12-15T21:42:08.888Z,100630.24
2018-12-15T21:44:37.315Z,100625.59
2018-12-15T21:47:05.645Z,100625.81
2018-12-15T21:49:34.061Z,100624.82
2018-12-15T21:52:02.456Z,100616.55
2018-12-15T21:54:30.819Z,100621.56
2018-12-15T21:56:59.175Z,100616.77
2018-12-15T21:59:27.603Z,100614.98
2018-12-15T22:01:55.919Z,100614.66
2018-12-15T22:04:24.258Z,100613.66
2018-12-15T22:06:52.620Z,100612.12
2018-12-15T22:09:21.029Z,100604.11
2018-12-15T22:11:49.483Z,100599.65
2018-12-15T22:14:18.356Z,100590.94
2018-12-15T22:16:46.750Z,100587.42
2018-12-15T22:19:15.091Z,100579.81
2018-12-15T22:21:43.530Z,100570.66
2018-12-15T22:24:11.899Z,100565.21
2018-12-15T22:26:40.287Z,100568.36
2018-12-15T22:29:08.963Z,100564.41
2018-12-15T22:31:37.335Z,100561.25
2018-12-15T22:34:05.663Z,100561.77
2018-12-15T22:36:33.996Z,100557.62
2018-12-15T22:39:02.335Z,100555.91
2018-12-15T22:41:30.782Z,100555.58
2018-12-15T22:43:59.180Z,100556.89
2018-12-15T22:46:27.519Z,100546.77
2018-12-15T22:48:55.858Z,100545.47
2018-12-15T22:51:24.263Z,100543.34
2018-12-15T22:53:53.495Z,100543.72
2018-12-15T22:56:21.857Z,100537.45
2018-12-15T22:58:50.239Z,100536.22
2018-12-15T23:01:18.604Z,100529.96
2018-12-15T23:03:46.930Z,100529.02
2018-12-15T23:06:15.292Z,100529.13
2018-12-15T23:08:43.648Z,100526.49
2018-12-15T23:11:12.020Z,100530.77
2018-12-15T23:13:40.357Z,100535.09
2018-12-15T23:16:08.875Z,100530.45
2018-12-15T23:18:37.216Z,100518.37
2018-12-15T23:21:05.576Z,100510.28
2018-12-15T23:23:34.028Z,100510.98
2018-12-15T23:26:02.823Z,100500.73
2018-12-15T23:28:31.235Z,100500.55
2018-12-15T23:30:59.567Z,100494.58
2018-12-15T23:33:27.940Z,100485.55
2018-12-15T23:35:56.285Z,100490.03
2018-12-15T23:38:24.601Z,100492.66
2018-12-15T23:40:52.952Z,100487.80
2018-12-15T23:43:21.309Z,100481.41
2018-12-15T23:45:49.739Z,100479.39
2018-12-15T23:48:18.071Z,100475.73
2018-12-15T23:50:46.423Z,100469.55
2018-12-15T23:53:15.035Z,100468.05
2018-12-15T23:55:43.467Z,100457.78
2018-12-15T23:58:11.846Z,100460.00
